Argusville, ND

2:11 PM CDT on May 03, 2015 (GMT -0500)
Harwood, ND | | Change Station
CLOSE
Current Station
Personal Weather Station
Location: Harwood, ND
Elevation: 879 ft
Nearby Weather Stations

Elev 879 ft 46.98 °N, 96.88 °W | Updated 5 minutes ago

Partly Cloudy
Partly Cloudy
62.0 °F
Feels Like 62.0 °F
N
4.0
Wind Variable Wind from WNW
Gusts 9.0 mph

Today
High -- | Low -- °F
--% Chance of Precip.
Yesterday
High -- | Low -- °F
Precip. -- in
6:08 AM 8:40 PM
Full, 100% visible
Pressure 29.92 in
Visibility 10.0 miles
Clouds Clear
Dew Point 29 °F
Humidity 29%
Rainfall 0.00 in
Snow Depth Not available.
UV 9 out of 12
Pollen 11.00 out of 12
Air Quality Not available.
Flu Activity Regional
METAR KFAR 031853Z 35015G20KT 10SM CLR 19/M03 A2992 RMK AO2 SLP132 T01891028 $

More Conditions Fewer Conditions

Pressure 29.92 in
Visibility 10.0 miles
Clouds Clear
Dew Point 29 °F
Humidity 29%
Rainfall 0.00 in
Snow Depth Not available.
UV 9 out of 12
Pollen 11.00 out of 12
Air Quality Not available.
Flu Activity Regional
METAR KFAR 031853Z 35015G20KT 10SM CLR 19/M03 A2992 RMK AO2 SLP132 T01891028 $

More Conditions Fewer Conditions

Nepal has a long way to go to dig out and rebuild from a devastating earthquake. We have teamed up with several charities and organizations to make contributing to the relief effort as easy as possible.
How you can help: Portlight Strategies | Red Cross

10-Day Weather Forecast

Almanac

Astronomy

May. 03, 2015 Rise Set
Actual Time
Civil Twilight
Nautical Twilight
Astronomical Twilight
Moon
Length of Visible Light
Length of Day
Tomorrow will be .
, % of the Moon is Illuminated

Today's Extremes

State Highs State Lows

Community

WunderPhotos

Upload Photos

1,818,343 photos uploaded!

WunderBlogs® & News

Nearby

Air Quality

  Air Quality AQ Index Pollutant
Not available.

Snow Depth

Station Depth Elevation

Earthquake Activity

City Distance Mag. Time & Date
Minimum magnitude displayed is 2.5.

Coastal Water Temperatures

Place Temperature

Stations

Nearby Weather Stations

Station Location Temp. Windchill Dew Point Humidity Wind Precip. Elev Updated Type